sensor_id;sensor_type;location;lat;lon;timestamp;P1;durP1;ratioP1;P2;durP2;ratioP2
49514;SDS011;35415;47.870;16.058;2023-05-10T04:13:07;7.38;;;2.08;;
49514;SDS011;35415;47.870;16.058;2023-05-10T04:15:37;3.20;;;2.25;;
49514;SDS011;35415;47.870;16.058;2023-05-10T04:18:06;3.08;;;2.00;;
49514;SDS011;35415;47.870;16.058;2023-05-10T04:20:34;4.07;;;2.30;;
49514;SDS011;35415;47.870;16.058;2023-05-10T04:23:04;2.65;;;2.10;;
49514;SDS011;35415;47.870;16.058;2023-05-10T04:25:33;5.38;;;2.35;;
49514;SDS011;35415;47.870;16.058;2023-05-10T04:28:03;4.93;;;1.95;;
49514;SDS011;35415;47.870;16.058;2023-05-10T04:30:36;3.75;;;2.40;;
49514;SDS011;35415;47.870;16.058;2023-05-10T04:33:06;3.80;;;2.17;;
49514;SDS011;35415;47.870;16.058;2023-05-10T04:35:34;3.85;;;1.92;;
49514;SDS011;35415;47.870;16.058;2023-05-10T04:38:02;4.20;;;2.08;;
49514;SDS011;35415;47.870;16.058;2023-05-10T04:40:30;2.95;;;2.05;;
49514;SDS011;35415;47.870;16.058;2023-05-10T04:42:58;5.18;;;2.20;;
49514;SDS011;35415;47.870;16.058;2023-05-10T04:45:32;4.43;;;2.55;;
49514;SDS011;35415;47.870;16.058;2023-05-10T04:48:01;6.40;;;2.50;;
49514;SDS011;35415;47.870;16.058;2023-05-10T04:50:28;3.97;;;1.90;;
49514;SDS011;35415;47.870;16.058;2023-05-10T04:52:57;2.75;;;1.80;;
49514;SDS011;35415;47.870;16.058;2023-05-10T04:55:24;3.35;;;1.75;;
49514;SDS011;35415;47.870;16.058;2023-05-10T04:57:53;6.43;;;2.00;;
49514;SDS011;35415;47.870;16.058;2023-05-10T05:00:22;4.22;;;2.22;;
49514;SDS011;35415;47.870;16.058;2023-05-10T05:02:52;5.75;;;2.55;;
49514;SDS011;35415;47.870;16.058;2023-05-10T05:05:19;2.55;;;1.85;;
49514;SDS011;35415;47.870;16.058;2023-05-10T05:07:49;3.45;;;1.67;;
49514;SDS011;35415;47.870;16.058;2023-05-10T05:10:21;2.63;;;1.80;;
49514;SDS011;35415;47.870;16.058;2023-05-10T05:12:52;3.28;;;1.50;;
49514;SDS011;35415;47.870;16.058;2023-05-10T05:15:19;2.20;;;1.63;;
49514;SDS011;35415;47.870;16.058;2023-05-10T05:17:47;3.63;;;1.60;;
49514;SDS011;35415;47.870;16.058;2023-05-10T05:20:17;3.75;;;1.80;;
49514;SDS011;35415;47.870;16.058;2023-05-10T05:22:44;3.00;;;1.63;;
49514;SDS011;35415;47.870;16.058;2023-05-10T05:25:18;3.65;;;1.90;;
49514;SDS011;35415;47.870;16.058;2023-05-10T05:30:47;2.10;;;1.80;;
49514;SDS011;35415;47.870;16.058;2023-05-10T05:33:16;2.17;;;1.83;;
49514;SDS011;35415;47.870;16.058;2023-05-10T05:35:47;1.83;;;1.55;;
49514;SDS011;35415;47.870;16.058;2023-05-10T05:38:16;3.83;;;2.17;;
49514;SDS011;35415;47.870;16.058;2023-05-10T05:40:43;2.92;;;1.80;;
49514;SDS011;35415;47.870;16.058;2023-05-10T05:43:11;5.45;;;2.40;;
49514;SDS011;35415;47.870;16.058;2023-05-10T05:45:39;3.38;;;2.00;;
49514;SDS011;35415;47.870;16.058;2023-05-10T05:48:06;2.70;;;2.00;;
49514;SDS011;35415;47.870;16.058;2023-05-10T05:50:34;4.68;;;1.80;;
49514;SDS011;35415;47.870;16.058;2023-05-10T05:53:02;3.28;;;1.85;;
49514;SDS011;35415;47.870;16.058;2023-05-10T05:55:31;3.40;;;2.38;;
49514;SDS011;35415;47.870;16.058;2023-05-10T05:57:59;2.70;;;2.22;;
49514;SDS011;35415;47.870;16.058;2023-05-10T06:00:26;4.03;;;1.92;;
49514;SDS011;35415;47.870;16.058;2023-05-10T06:02:54;6.15;;;2.47;;
49514;SDS011;35415;47.870;16.058;2023-05-10T06:05:22;5.20;;;2.50;;
49514;SDS011;35415;47.870;16.058;2023-05-10T06:07:51;2.67;;;2.17;;
49514;SDS011;35415;47.870;16.058;2023-05-10T06:10:20;4.95;;;1.92;;
49514;SDS011;35415;47.870;16.058;2023-05-10T06:12:48;3.38;;;2.60;;
49514;SDS011;35415;47.870;16.058;2023-05-10T06:15:16;3.08;;;2.22;;
49514;SDS011;35415;47.870;16.058;2023-05-10T06:17:43;4.00;;;2.15;;
49514;SDS011;35415;47.870;16.058;2023-05-10T06:20:12;2.92;;;2.25;;
49514;SDS011;35415;47.870;16.058;2023-05-10T06:22:40;3.50;;;2.25;;
49514;SDS011;35415;47.870;16.058;2023-05-10T06:25:08;2.60;;;2.28;;
49514;SDS011;35415;47.870;16.058;2023-05-10T06:27:46;5.10;;;2.20;;
49514;SDS011;35415;47.870;16.058;2023-05-10T06:30:23;3.83;;;2.22;;
49514;SDS011;35415;47.870;16.058;2023-05-10T06:32:53;7.90;;;2.80;;
49514;SDS011;35415;47.870;16.058;2023-05-10T06:35:22;6.68;;;2.53;;
49514;SDS011;35415;47.870;16.058;2023-05-10T06:37:50;3.60;;;2.65;;
49514;SDS011;35415;47.870;16.058;2023-05-10T06:40:18;3.35;;;2.50;;
49514;SDS011;35415;47.870;16.058;2023-05-10T06:42:47;3.53;;;2.55;;
49514;SDS011;35415;47.870;16.058;2023-05-10T06:45:15;2.63;;;2.22;;
49514;SDS011;35415;47.870;16.058;2023-05-10T06:47:45;5.53;;;2.30;;
49514;SDS011;35415;47.870;16.058;2023-05-10T06:50:12;8.50;;;2.30;;
49514;SDS011;35415;47.870;16.058;2023-05-10T06:52:39;2.90;;;2.20;;
49514;SDS011;35415;47.870;16.058;2023-05-10T06:55:07;2.78;;;2.05;;
49514;SDS011;35415;47.870;16.058;2023-05-10T06:57:35;3.38;;;2.40;;
49514;SDS011;35415;47.870;16.058;2023-05-10T07:00:05;3.25;;;2.30;;
49514;SDS011;35415;47.870;16.058;2023-05-10T07:02:35;3.28;;;2.05;;
49514;SDS011;35415;47.870;16.058;2023-05-10T07:05:02;3.20;;;1.98;;
49514;SDS011;35415;47.870;16.058;2023-05-10T07:07:32;3.22;;;2.00;;
49514;SDS011;35415;47.870;16.058;2023-05-10T07:10:00;3.08;;;2.20;;
49514;SDS011;35415;47.870;16.058;2023-05-10T07:12:29;2.83;;;2.20;;
49514;SDS011;35415;47.870;16.058;2023-05-10T07:14:57;3.70;;;2.35;;
49514;SDS011;35415;47.870;16.058;2023-05-10T07:17:26;3.83;;;1.88;;
49514;SDS011;35415;47.870;16.058;2023-05-10T07:19:53;3.95;;;2.00;;
49514;SDS011;35415;47.870;16.058;2023-05-10T07:22:21;7.88;;;2.50;;
49514;SDS011;35415;47.870;16.058;2023-05-10T07:24:49;3.05;;;2.15;;
49514;SDS011;35415;47.870;16.058;2023-05-10T07:27:16;3.35;;;2.05;;
49514;SDS011;35415;47.870;16.058;2023-05-10T07:29:45;4.75;;;1.90;;
49514;SDS011;35415;47.870;16.058;2023-05-10T07:32:13;3.28;;;1.95;;
49514;SDS011;35415;47.870;16.058;2023-05-10T07:34:44;5.32;;;2.42;;
49514;SDS011;35415;47.870;16.058;2023-05-10T07:37:11;3.53;;;1.98;;
49514;SDS011;35415;47.870;16.058;2023-05-10T07:39:38;2.47;;;1.88;;
49514;SDS011;35415;47.870;16.058;2023-05-10T07:42:06;2.20;;;1.75;;
49514;SDS011;35415;47.870;16.058;2023-05-10T07:44:33;2.50;;;1.73;;
49514;SDS011;35415;47.870;16.058;2023-05-10T07:47:01;2.00;;;1.80;;
49514;SDS011;35415;47.870;16.058;2023-05-10T07:49:28;4.10;;;1.60;;
49514;SDS011;35415;47.870;16.058;2023-05-10T07:51:59;2.60;;;1.70;;
49514;SDS011;35415;47.870;16.058;2023-05-10T07:54:26;3.33;;;1.60;;
49514;SDS011;35415;47.870;16.058;2023-05-10T07:56:53;3.67;;;1.58;;
49514;SDS011;35415;47.870;16.058;2023-05-10T07:59:21;3.72;;;1.75;;
49514;SDS011;35415;47.870;16.058;2023-05-10T08:01:48;3.90;;;1.92;;
49514;SDS011;35415;47.870;16.058;2023-05-10T08:04:19;4.65;;;1.92;;
49514;SDS011;35415;47.870;16.058;2023-05-10T08:06:47;2.80;;;2.20;;
49514;SDS011;35415;47.870;16.058;2023-05-10T08:09:16;2.33;;;1.92;;
49514;SDS011;35415;47.870;16.058;2023-05-10T08:11:48;6.32;;;2.03;;
49514;SDS011;35415;47.870;16.058;2023-05-10T08:14:16;2.33;;;1.70;;
49514;SDS011;35415;47.870;16.058;2023-05-10T08:16:45;2.20;;;1.80;;
49514;SDS011;35415;47.870;16.058;2023-05-10T08:19:13;2.05;;;1.70;;
49514;SDS011;35415;47.870;16.058;2023-05-10T08:21:44;6.28;;;1.80;;
49514;SDS011;35415;47.870;16.058;2023-05-10T08:24:11;2.40;;;1.92;;
49514;SDS011;35415;47.870;16.058;2023-05-10T08:26:43;2.88;;;1.90;;
49514;SDS011;35415;47.870;16.058;2023-05-10T08:29:11;3.03;;;1.75;;
49514;SDS011;35415;47.870;16.058;2023-05-10T08:31:41;2.25;;;1.98;;
49514;SDS011;35415;47.870;16.058;2023-05-10T08:34:08;2.22;;;1.90;;
49514;SDS011;35415;47.870;16.058;2023-05-10T08:36:35;2.00;;;1.60;;
49514;SDS011;35415;47.870;16.058;2023-05-10T08:39:03;3.75;;;1.80;;
49514;SDS011;35415;47.870;16.058;2023-05-10T08:41:30;2.97;;;1.88;;
49514;SDS011;35415;47.870;16.058;2023-05-10T08:44:02;3.78;;;2.00;;
49514;SDS011;35415;47.870;16.058;2023-05-10T08:46:31;2.88;;;1.75;;
49514;SDS011;35415;47.870;16.058;2023-05-10T08:49:05;3.03;;;2.58;;
49514;SDS011;35415;47.870;16.058;2023-05-10T08:51:36;1.70;;;1.48;;
49514;SDS011;35415;47.870;16.058;2023-05-10T08:54:11;1.77;;;1.55;;
49514;SDS011;35415;47.870;16.058;2023-05-10T08:56:39;6.80;;;1.70;;
49514;SDS011;35415;47.870;16.058;2023-05-10T08:59:08;4.38;;;2.42;;
49514;SDS011;35415;47.870;16.058;2023-05-10T09:01:38;2.30;;;2.10;;
49514;SDS011;35415;47.870;16.058;2023-05-10T09:06:39;3.88;;;1.63;;
49514;SDS011;35415;47.870;16.058;2023-05-10T09:09:07;3.10;;;2.42;;
49514;SDS011;35415;47.870;16.058;2023-05-10T09:11:34;2.53;;;1.73;;
49514;SDS011;35415;47.870;16.058;2023-05-10T09:14:02;2.55;;;1.58;;
49514;SDS011;35415;47.870;16.058;2023-05-10T09:16:34;1.88;;;1.60;;
49514;SDS011;35415;47.870;16.058;2023-05-10T09:19:01;6.05;;;2.00;;
49514;SDS011;35415;47.870;16.058;2023-05-10T09:21:29;3.05;;;1.77;;
49514;SDS011;35415;47.870;16.058;2023-05-10T09:23:57;1.90;;;1.70;;
49514;SDS011;35415;47.870;16.058;2023-05-10T09:26:30;5.63;;;1.88;;
49514;SDS011;35415;47.870;16.058;2023-05-10T09:29:01;2.53;;;1.75;;
49514;SDS011;35415;47.870;16.058;2023-05-10T09:31:55;2.25;;;1.50;;
49514;SDS011;35415;47.870;16.058;2023-05-10T09:34:28;2.70;;;1.70;;
49514;SDS011;35415;47.870;16.058;2023-05-10T09:36:56;2.63;;;1.90;;
49514;SDS011;35415;47.870;16.058;2023-05-10T09:39:32;1.60;;;1.40;;
49514;SDS011;35415;47.870;16.058;2023-05-10T09:42:02;1.90;;;1.67;;
49514;SDS011;35415;47.870;16.058;2023-05-10T09:44:31;2.45;;;1.50;;
49514;SDS011;35415;47.870;16.058;2023-05-10T09:47:01;2.40;;;1.80;;
49514;SDS011;35415;47.870;16.058;2023-05-10T09:49:29;5.05;;;1.95;;
49514;SDS011;35415;47.870;16.058;2023-05-10T09:52:01;1.55;;;1.40;;
49514;SDS011;35415;47.870;16.058;2023-05-10T09:54:33;1.80;;;1.50;;
49514;SDS011;35415;47.870;16.058;2023-05-10T09:57:02;2.03;;;1.65;;
49514;SDS011;35415;47.870;16.058;2023-05-10T09:59:32;1.90;;;1.70;;
49514;SDS011;35415;47.870;16.058;2023-05-10T10:02:01;4.93;;;1.52;;
49514;SDS011;35415;47.870;16.058;2023-05-10T10:04:29;1.70;;;1.50;;
49514;SDS011;35415;47.870;16.058;2023-05-10T10:06:58;4.95;;;2.40;;
49514;SDS011;35415;47.870;16.058;2023-05-10T10:09:29;4.78;;;1.60;;
49514;SDS011;35415;47.870;16.058;2023-05-10T10:11:57;2.13;;;1.50;;
49514;SDS011;35415;47.870;16.058;2023-05-10T10:14:25;2.00;;;1.80;;
49514;SDS011;35415;47.870;16.058;2023-05-10T10:16:53;2.88;;;1.75;;
49514;SDS011;35415;47.870;16.058;2023-05-10T10:19:22;2.10;;;1.90;;
49514;SDS011;35415;47.870;16.058;2023-05-10T10:21:49;2.70;;;1.73;;
49514;SDS011;35415;47.870;16.058;2023-05-10T10:24:17;4.20;;;1.80;;
49514;SDS011;35415;47.870;16.058;2023-05-10T10:26:44;3.83;;;1.60;;
49514;SDS011;35415;47.870;16.058;2023-05-10T10:29:20;1.88;;;1.52;;
49514;SDS011;35415;47.870;16.058;2023-05-10T10:31:59;3.10;;;2.15;;
49514;SDS011;35415;47.870;16.058;2023-05-10T10:34:40;4.10;;;1.67;;
49514;SDS011;35415;47.870;16.058;2023-05-10T10:37:10;2.05;;;1.55;;
49514;SDS011;35415;47.870;16.058;2023-05-10T10:39:38;2.28;;;1.50;;
49514;SDS011;35415;47.870;16.058;2023-05-10T10:45:11;2.38;;;1.52;;
49514;SDS011;35415;47.870;16.058;2023-05-10T10:47:41;3.55;;;1.52;;
49514;SDS011;35415;47.870;16.058;2023-05-10T10:50:10;2.08;;;1.60;;
49514;SDS011;35415;47.870;16.058;2023-05-10T10:58:38;2.40;;;1.30;;
49514;SDS011;35415;47.870;16.058;2023-05-10T11:01:10;11.40;;;1.88;;
49514;SDS011;35415;47.870;16.058;2023-05-10T11:03:39;2.35;;;1.30;;
49514;SDS011;35415;47.870;16.058;2023-05-10T11:06:08;2.25;;;1.60;;
49514;SDS011;35415;47.870;16.058;2023-05-10T11:11:18;2.15;;;1.90;;
49514;SDS011;35415;47.870;16.058;2023-05-10T11:13:57;1.70;;;1.30;;
49514;SDS011;35415;47.870;16.058;2023-05-10T11:19:07;1.80;;;1.33;;
49514;SDS011;35415;47.870;16.058;2023-05-10T11:21:48;2.08;;;1.48;;
49514;SDS011;35415;47.870;16.058;2023-05-10T11:24:17;4.95;;;1.40;;
49514;SDS011;35415;47.870;16.058;2023-05-10T11:26:47;2.25;;;1.45;;
49514;SDS011;35415;47.870;16.058;2023-05-10T11:29:16;4.10;;;2.28;;
49514;SDS011;35415;47.870;16.058;2023-05-10T11:31:44;1.27;;;1.17;;
49514;SDS011;35415;47.870;16.058;2023-05-10T11:34:22;2.95;;;1.33;;
49514;SDS011;35415;47.870;16.058;2023-05-10T11:36:52;1.42;;;1.33;;
49514;SDS011;35415;47.870;16.058;2023-05-10T11:39:24;1.63;;;1.33;;
49514;SDS011;35415;47.870;16.058;2023-05-10T11:41:55;1.52;;;1.40;;
49514;SDS011;35415;47.870;16.058;2023-05-10T11:44:23;2.42;;;1.05;;
49514;SDS011;35415;47.870;16.058;2023-05-10T11:59:13;1.83;;;1.42;;
49514;SDS011;35415;47.870;16.058;2023-05-10T12:01:55;4.40;;;1.27;;
49514;SDS011;35415;47.870;16.058;2023-05-10T12:04:22;1.85;;;1.33;;
49514;SDS011;35415;47.870;16.058;2023-05-10T15:13:18;2.00;;;1.10;;
49514;SDS011;35415;47.870;16.058;2023-05-10T15:34:06;2.00;;;1.88;;
49514;SDS011;35415;47.870;16.058;2023-05-10T15:36:33;2.70;;;2.35;;
49514;SDS011;35415;47.870;16.058;2023-05-10T15:39:01;9.82;;;7.90;;
49514;SDS011;35415;47.870;16.058;2023-05-10T15:41:29;59.28;;;36.17;;
49514;SDS011;35415;47.870;16.058;2023-05-10T15:43:57;11.45;;;6.32;;
49514;SDS011;35415;47.870;16.058;2023-05-10T15:46:27;12.30;;;8.20;;
49514;SDS011;35415;47.870;16.058;2023-05-10T15:48:56;2.10;;;1.55;;
49514;SDS011;35415;47.870;16.058;2023-05-10T15:51:27;17.70;;;8.27;;
49514;SDS011;35415;47.870;16.058;2023-05-10T15:53:54;22.38;;;11.45;;
49514;SDS011;35415;47.870;16.058;2023-05-10T15:56:23;108.70;;;50.22;;
49514;SDS011;35415;47.870;16.058;2023-05-10T15:58:51;73.10;;;39.20;;
49514;SDS011;35415;47.870;16.058;2023-05-10T16:01:18;124.05;;;75.82;;
49514;SDS011;35415;47.870;16.058;2023-05-10T16:03:48;51.85;;;36.95;;
49514;SDS011;35415;47.870;16.058;2023-05-10T16:06:17;24.83;;;21.00;;
49514;SDS011;35415;47.870;16.058;2023-05-10T16:08:52;12.95;;;10.57;;
49514;SDS011;35415;47.870;16.058;2023-05-10T16:11:23;2.72;;;2.53;;
49514;SDS011;35415;47.870;16.058;2023-05-10T16:13:55;2.10;;;1.92;;
49514;SDS011;35415;47.870;16.058;2023-05-10T16:16:23;4.50;;;3.63;;
49514;SDS011;35415;47.870;16.058;2023-05-10T16:18:52;2.33;;;1.63;;
49514;SDS011;35415;47.870;16.058;2023-05-10T16:21:23;11.77;;;9.57;;
49514;SDS011;35415;47.870;16.058;2023-05-10T16:23:54;9.18;;;5.75;;
49514;SDS011;35415;47.870;16.058;2023-05-10T16:26:29;3.00;;;2.70;;
49514;SDS011;35415;47.870;16.058;2023-05-10T16:28:56;2.35;;;2.08;;
49514;SDS011;35415;47.870;16.058;2023-05-10T16:31:24;5.57;;;2.58;;
49514;SDS011;35415;47.870;16.058;2023-05-10T16:33:54;3.30;;;2.08;;
49514;SDS011;35415;47.870;16.058;2023-05-10T16:36:25;2.30;;;1.80;;
49514;SDS011;35415;47.870;16.058;2023-05-10T16:38:54;3.60;;;2.33;;
49514;SDS011;35415;47.870;16.058;2023-05-10T16:41:23;1.58;;;1.40;;
49514;SDS011;35415;47.870;16.058;2023-05-10T16:43:50;2.47;;;1.55;;
49514;SDS011;35415;47.870;16.058;2023-05-10T16:49:33;3.90;;;2.10;;
49514;SDS011;35415;47.870;16.058;2023-05-10T16:55:07;3.28;;;2.00;;
49514;SDS011;35415;47.870;16.058;2023-05-10T17:00:38;3.33;;;2.00;;
49514;SDS011;35415;47.870;16.058;2023-05-10T17:06:04;2.00;;;1.80;;
49514;SDS011;35415;47.870;16.058;2023-05-10T17:08:32;8.30;;;2.75;;
49514;SDS011;35415;47.870;16.058;2023-05-10T17:46:24;2.13;;;1.92;;
49514;SDS011;35415;47.870;16.058;2023-05-10T17:48:52;1.67;;;1.52;;
49514;SDS011;35415;47.870;16.058;2023-05-10T17:51:19;2.78;;;1.55;;
49514;SDS011;35415;47.870;16.058;2023-05-10T17:53:49;2.33;;;1.40;;
49514;SDS011;35415;47.870;16.058;2023-05-10T17:56:17;2.88;;;1.40;;
49514;SDS011;35415;47.870;16.058;2023-05-10T17:58:44;1.55;;;1.45;;
49514;SDS011;35415;47.870;16.058;2023-05-10T18:01:11;5.80;;;2.58;;
49514;SDS011;35415;47.870;16.058;2023-05-10T18:03:39;2.05;;;1.50;;
49514;SDS011;35415;47.870;16.058;2023-05-10T18:06:06;1.58;;;1.45;;
49514;SDS011;35415;47.870;16.058;2023-05-10T18:08:34;1.50;;;1.30;;
49514;SDS011;35415;47.870;16.058;2023-05-10T18:11:01;1.90;;;1.63;;
49514;SDS011;35415;47.870;16.058;2023-05-10T18:13:28;3.20;;;1.50;;
49514;SDS011;35415;47.870;16.058;2023-05-10T18:15:55;4.03;;;1.63;;
49514;SDS011;35415;47.870;16.058;2023-05-10T18:18:22;4.25;;;1.70;;
49514;SDS011;35415;47.870;16.058;2023-05-10T18:20:52;2.40;;;1.30;;
49514;SDS011;35415;47.870;16.058;2023-05-10T18:23:22;4.95;;;1.85;;
49514;SDS011;35415;47.870;16.058;2023-05-10T18:25:50;1.92;;;1.25;;
49514;SDS011;35415;47.870;16.058;2023-05-10T18:28:21;1.60;;;1.40;;
49514;SDS011;35415;47.870;16.058;2023-05-10T18:30:49;2.75;;;1.42;;
49514;SDS011;35415;47.870;16.058;2023-05-10T18:33:17;3.53;;;1.48;;
49514;SDS011;35415;47.870;16.058;2023-05-10T18:35:45;1.55;;;1.33;;
49514;SDS011;35415;47.870;16.058;2023-05-10T18:38:13;2.15;;;1.48;;
49514;SDS011;35415;47.870;16.058;2023-05-10T18:40:40;1.70;;;1.45;;
49514;SDS011;35415;47.870;16.058;2023-05-10T18:43:08;2.88;;;1.48;;
49514;SDS011;35415;47.870;16.058;2023-05-10T18:45:36;1.80;;;1.42;;
49514;SDS011;35415;47.870;16.058;2023-05-10T18:48:03;5.57;;;1.40;;
49514;SDS011;35415;47.870;16.058;2023-05-10T18:50:32;2.15;;;1.45;;
49514;SDS011;35415;47.870;16.058;2023-05-10T18:52:59;1.58;;;1.48;;
49514;SDS011;35415;47.870;16.058;2023-05-10T18:55:28;1.50;;;1.40;;
49514;SDS011;35415;47.870;16.058;2023-05-10T18:57:55;2.97;;;1.50;;
49514;SDS011;35415;47.870;16.058;2023-05-10T19:00:24;3.58;;;1.88;;
49514;SDS011;35415;47.870;16.058;2023-05-10T19:27:08;2.53;;;1.70;;
49514;SDS011;35415;47.870;16.058;2023-05-10T19:29:36;3.28;;;1.60;;
49514;SDS011;35415;47.870;16.058;2023-05-10T19:32:03;2.72;;;1.40;;
49514;SDS011;35415;47.870;16.058;2023-05-10T19:34:30;3.15;;;1.55;;
49514;SDS011;35415;47.870;16.058;2023-05-10T19:36:57;2.10;;;1.85;;
49514;SDS011;35415;47.870;16.058;2023-05-10T19:39:25;1.67;;;1.50;;
49514;SDS011;35415;47.870;16.058;2023-05-10T19:41:53;3.42;;;2.20;;
49514;SDS011;35415;47.870;16.058;2023-05-10T19:44:22;4.18;;;2.80;;
49514;SDS011;35415;47.870;16.058;2023-05-10T19:46:49;5.40;;;2.22;;
49514;SDS011;35415;47.870;16.058;2023-05-10T19:49:16;4.65;;;2.20;;
49514;SDS011;35415;47.870;16.058;2023-05-10T19:51:43;3.85;;;2.20;;
49514;SDS011;35415;47.870;16.058;2023-05-10T19:54:11;4.57;;;2.20;;
49514;SDS011;35415;47.870;16.058;2023-05-10T19:56:38;4.13;;;1.77;;
49514;SDS011;35415;47.870;16.058;2023-05-10T19:59:05;3.03;;;1.50;;
49514;SDS011;35415;47.870;16.058;2023-05-10T20:01:34;2.47;;;2.25;;
49514;SDS011;35415;47.870;16.058;2023-05-10T20:04:01;2.67;;;1.70;;
49514;SDS011;35415;47.870;16.058;2023-05-10T20:06:28;2.75;;;1.58;;
49514;SDS011;35415;47.870;16.058;2023-05-10T20:08:56;2.17;;;1.58;;
49514;SDS011;35415;47.870;16.058;2023-05-10T20:11:23;2.42;;;1.83;;
49514;SDS011;35415;47.870;16.058;2023-05-10T20:13:50;1.70;;;1.60;;
49514;SDS011;35415;47.870;16.058;2023-05-10T20:16:20;1.90;;;1.60;;
49514;SDS011;35415;47.870;16.058;2023-05-10T20:18:54;6.25;;;1.65;;
49514;SDS011;35415;47.870;16.058;2023-05-10T20:21:25;3.05;;;1.70;;
49514;SDS011;35415;47.870;16.058;2023-05-10T20:23:52;2.58;;;1.70;;
49514;SDS011;35415;47.870;16.058;2023-05-10T20:26:25;1.95;;;1.75;;
49514;SDS011;35415;47.870;16.058;2023-05-10T20:28:52;3.10;;;1.65;;
49514;SDS011;35415;47.870;16.058;2023-05-10T20:31:19;4.43;;;2.00;;
49514;SDS011;35415;47.870;16.058;2023-05-10T20:33:54;2.88;;;1.77;;
49514;SDS011;35415;47.870;16.058;2023-05-10T20:36:21;3.80;;;1.60;;
49514;SDS011;35415;47.870;16.058;2023-05-10T20:38:55;2.45;;;1.45;;
49514;SDS011;35415;47.870;16.058;2023-05-10T20:41:22;2.47;;;1.70;;
49514;SDS011;35415;47.870;16.058;2023-05-10T20:43:54;2.55;;;1.60;;
49514;SDS011;35415;47.870;16.058;2023-05-10T20:46:25;1.40;;;1.30;;
49514;SDS011;35415;47.870;16.058;2023-05-10T20:48:54;4.00;;;1.52;;
49514;SDS011;35415;47.870;16.058;2023-05-10T20:51:22;2.35;;;1.63;;
49514;SDS011;35415;47.870;16.058;2023-05-10T20:53:53;3.08;;;1.73;;
49514;SDS011;35415;47.870;16.058;2023-05-10T20:56:21;7.00;;;1.88;;
49514;SDS011;35415;47.870;16.058;2023-05-10T20:58:48;2.20;;;1.45;;
49514;SDS011;35415;47.870;16.058;2023-05-10T21:01:18;4.32;;;1.85;;
49514;SDS011;35415;47.870;16.058;2023-05-10T21:03:45;1.77;;;1.60;;
49514;SDS011;35415;47.870;16.058;2023-05-10T21:06:14;2.22;;;1.67;;
49514;SDS011;35415;47.870;16.058;2023-05-10T21:08:42;3.70;;;1.67;;
49514;SDS011;35415;47.870;16.058;2023-05-10T21:11:09;1.85;;;1.52;;
49514;SDS011;35415;47.870;16.058;2023-05-10T21:13:37;2.05;;;1.60;;
49514;SDS011;35415;47.870;16.058;2023-05-10T21:16:04;2.70;;;1.60;;
49514;SDS011;35415;47.870;16.058;2023-05-10T21:18:31;1.58;;;1.40;;
49514;SDS011;35415;47.870;16.058;2023-05-10T21:20:58;3.30;;;1.80;;
49514;SDS011;35415;47.870;16.058;2023-05-10T21:23:27;2.60;;;1.83;;
49514;SDS011;35415;47.870;16.058;2023-05-10T21:25:54;2.78;;;1.70;;
49514;SDS011;35415;47.870;16.058;2023-05-10T21:28:21;1.80;;;1.55;;
49514;SDS011;35415;47.870;16.058;2023-05-10T21:30:50;1.50;;;1.40;;
49514;SDS011;35415;47.870;16.058;2023-05-10T21:33:17;3.88;;;2.08;;
49514;SDS011;35415;47.870;16.058;2023-05-10T21:35:45;3.90;;;1.70;;
49514;SDS011;35415;47.870;16.058;2023-05-10T21:38:12;2.85;;;1.90;;
49514;SDS011;35415;47.870;16.058;2023-05-10T21:40:41;5.40;;;1.98;;
49514;SDS011;35415;47.870;16.058;2023-05-10T21:43:09;1.60;;;1.40;;
49514;SDS011;35415;47.870;16.058;2023-05-10T21:45:36;2.03;;;1.83;;
49514;SDS011;35415;47.870;16.058;2023-05-10T21:48:04;6.18;;;2.28;;
49514;SDS011;35415;47.870;16.058;2023-05-10T21:50:32;3.20;;;1.70;;
49514;SDS011;35415;47.870;16.058;2023-05-10T21:52:59;3.08;;;1.60;;
49514;SDS011;35415;47.870;16.058;2023-05-10T21:55:26;2.80;;;1.65;;
49514;SDS011;35415;47.870;16.058;2023-05-10T21:57:54;2.95;;;1.63;;
49514;SDS011;35415;47.870;16.058;2023-05-10T22:00:22;2.45;;;1.60;;
49514;SDS011;35415;47.870;16.058;2023-05-10T22:02:49;2.22;;;2.00;;
49514;SDS011;35415;47.870;16.058;2023-05-10T22:05:16;3.00;;;1.88;;
49514;SDS011;35415;47.870;16.058;2023-05-10T22:07:43;2.35;;;1.73;;
49514;SDS011;35415;47.870;16.058;2023-05-10T22:10:11;3.33;;;1.77;;
49514;SDS011;35415;47.870;16.058;2023-05-10T22:12:38;3.20;;;2.00;;
49514;SDS011;35415;47.870;16.058;2023-05-10T22:15:07;2.08;;;1.60;;
49514;SDS011;35415;47.870;16.058;2023-05-10T22:17:36;1.80;;;1.60;;
49514;SDS011;35415;47.870;16.058;2023-05-10T22:20:04;4.35;;;2.28;;
49514;SDS011;35415;47.870;16.058;2023-05-10T22:22:32;6.72;;;1.98;;
49514;SDS011;35415;47.870;16.058;2023-05-10T22:25:00;3.60;;;1.85;;
49514;SDS011;35415;47.870;16.058;2023-05-10T22:27:28;2.35;;;1.92;;
49514;SDS011;35415;47.870;16.058;2023-05-10T22:29:55;3.85;;;1.80;;
49514;SDS011;35415;47.870;16.058;2023-05-10T22:32:24;3.97;;;2.40;;
49514;SDS011;35415;47.870;16.058;2023-05-10T22:34:51;4.65;;;2.88;;
49514;SDS011;35415;47.870;16.058;2023-05-10T22:37:18;4.03;;;2.00;;
49514;SDS011;35415;47.870;16.058;2023-05-10T22:39:45;6.15;;;2.35;;
49514;SDS011;35415;47.870;16.058;2023-05-10T22:42:12;2.38;;;1.98;;
49514;SDS011;35415;47.870;16.058;2023-05-10T22:44:39;2.92;;;2.20;;
49514;SDS011;35415;47.870;16.058;2023-05-10T22:47:08;5.55;;;3.33;;
49514;SDS011;35415;47.870;16.058;2023-05-10T22:49:38;2.50;;;1.95;;
49514;SDS011;35415;47.870;16.058;2023-05-10T22:52:05;2.70;;;1.92;;
49514;SDS011;35415;47.870;16.058;2023-05-10T22:54:36;4.40;;;2.65;;
49514;SDS011;35415;47.870;16.058;2023-05-10T22:57:03;2.80;;;1.80;;
49514;SDS011;35415;47.870;16.058;2023-05-10T22:59:35;2.53;;;1.98;;
49514;SDS011;35415;47.870;16.058;2023-05-10T23:02:02;5.18;;;1.70;;
49514;SDS011;35415;47.870;16.058;2023-05-10T23:04:29;2.13;;;1.73;;
49514;SDS011;35415;47.870;16.058;2023-05-10T23:06:57;3.40;;;1.50;;
49514;SDS011;35415;47.870;16.058;2023-05-10T23:09:24;2.60;;;2.00;;
49514;SDS011;35415;47.870;16.058;2023-05-10T23:11:52;3.78;;;1.73;;
49514;SDS011;35415;47.870;16.058;2023-05-10T23:14:19;2.70;;;1.85;;
49514;SDS011;35415;47.870;16.058;2023-05-10T23:16:46;1.98;;;1.75;;
49514;SDS011;35415;47.870;16.058;2023-05-10T23:19:13;4.05;;;1.95;;
49514;SDS011;35415;47.870;16.058;2023-05-10T23:21:40;2.38;;;1.90;;
49514;SDS011;35415;47.870;16.058;2023-05-10T23:24:08;2.20;;;1.80;;
49514;SDS011;35415;47.870;16.058;2023-05-10T23:26:36;1.98;;;1.77;;
49514;SDS011;35415;47.870;16.058;2023-05-10T23:29:03;2.33;;;1.77;;
49514;SDS011;35415;47.870;16.058;2023-05-10T23:31:30;3.20;;;2.10;;
49514;SDS011;35415;47.870;16.058;2023-05-10T23:33:57;3.13;;;1.88;;
49514;SDS011;35415;47.870;16.058;2023-05-10T23:36:24;3.05;;;1.98;;
49514;SDS011;35415;47.870;16.058;2023-05-10T23:38:51;3.53;;;2.05;;
49514;SDS011;35415;47.870;16.058;2023-05-10T23:41:22;2.05;;;1.85;;
49514;SDS011;35415;47.870;16.058;2023-05-10T23:43:50;2.67;;;2.10;;
49514;SDS011;35415;47.870;16.058;2023-05-10T23:46:17;4.22;;;1.88;;
49514;SDS011;35415;47.870;16.058;2023-05-10T23:48:44;2.83;;;2.00;;
49514;SDS011;35415;47.870;16.058;2023-05-10T23:51:12;4.25;;;2.17;;
49514;SDS011;35415;47.870;16.058;2023-05-10T23:53:39;6.70;;;2.05;;
49514;SDS011;35415;47.870;16.058;2023-05-10T23:56:06;5.10;;;1.90;;
49514;SDS011;35415;47.870;16.058;2023-05-10T23:58:34;2.38;;;2.05;;
